Time;durP1;ratioP1;P1;durP2;ratioP2;P2;SDS_P1;SDS_P2;PMS_P1;PMS_P2;Temp;Humidity;BMP_temperature;BMP_pressure;BME280_temperature;BME280_humidity;BME280_pressure;Samples;Min_cycle;Max_cycle;Signal;HPM_P1;HPM_P2
2020/12/10 00:01:09;;;;;;;;;;;2.50;99.90;;;;;;5111630;28;19924;-81
2020/12/10 00:03:35;;;;;;;;;;;2.30;99.90;;;;;;5096689;28;19915;-81
2020/12/10 00:06:01;;;;;;;;;;;2.20;99.90;;;;;;5096463;28;19908;-81
2020/12/10 00:08:29;;;;;;;;;;;2.00;99.90;;;;;;5096159;28;20253;-82
2020/12/10 00:10:55;;;;;;;;;;;1.90;99.90;;;;;;5096029;28;20011;-81
2020/12/10 00:13:24;;;;;;;;;;;1.80;99.90;;;;;;5096154;28;19918;-82
2020/12/10 00:15:55;;;;;;;;;;;1.80;99.90;;;;;;5095974;28;19912;-81
2020/12/10 00:18:20;;;;;;;;;;;1.70;99.90;;;;;;5098322;28;19955;-82
2020/12/10 00:20:55;;;;;;;;;;;1.70;99.90;;;;;;5118127;28;20318;-82
2020/12/10 00:23:24;;;;;;;;;;;1.60;99.90;;;;;;5100445;28;19908;-82
2020/12/10 00:25:52;;;;;;;;;;;1.50;99.90;;;;;;5097490;28;19965;-81
2020/12/10 00:28:18;;;;;;;;;;;1.40;99.90;;;;;;5099847;28;19947;-82
2020/12/10 00:30:47;;;;;;;;;;;1.30;99.90;;;;;;5099973;28;19961;-82
2020/12/10 00:33:22;;;;;;;;;;;1.20;99.90;;;;;;5099834;28;19912;-82
2020/12/10 00:35:50;;;;;;;;;;;1.20;99.90;;;;;;5096938;28;19912;-82
2020/12/10 00:38:27;;;;;;;;;;;1.10;99.90;;;;;;5096906;28;19912;-82
2020/12/10 00:40:56;;;;;;;;;;;1.00;99.90;;;;;;5097176;28;19912;-82
2020/12/10 00:43:22;;;;;;;;;;;1.00;99.90;;;;;;5117946;28;19919;-82
2020/12/10 00:46:03;;;;;;;;;;;0.90;99.90;;;;;;5117867;28;19908;-81
2020/12/10 00:48:35;;;;;;;;;;;0.90;99.90;;;;;;5100495;28;19907;-83
2020/12/10 00:51:06;;;;;;;;;;;0.90;99.90;;;;;;5099649;28;19912;-80
2020/12/10 00:53:35;;;;;;;;;;;0.80;99.90;;;;;;5099470;28;19969;-80
2020/12/10 00:56:09;;;;;;;;;;;0.90;99.90;;;;;;5038346;28;19966;-80
2020/12/10 00:58:35;;;;;;;;;;;0.80;99.90;;;;;;5054715;28;19908;-80
2020/12/10 01:01:18;;;;;;;;;;;0.80;99.90;;;;;;5054974;28;19958;-81
2020/12/10 01:03:46;;;;;;;;;;;0.70;99.90;;;;;;5038085;28;19915;-81
2020/12/10 01:06:19;;;;;;;;;;;0.70;99.90;;;;;;5054872;28;20359;-81
2020/12/10 01:08:44;;;;;;;;;;;0.70;99.90;;;;;;5037483;28;19916;-81
2020/12/10 01:11:13;;;;;;;;;;;0.60;99.90;;;;;;5053946;28;19927;-81
2020/12/10 01:13:39;;;;;;;;;;;0.60;99.90;;;;;;5037761;28;19916;-80
2020/12/10 01:16:17;;;;;;;;;;;0.50;99.90;;;;;;5037876;28;19909;-81
2020/12/10 01:18:45;;;;;;;;;;;0.50;99.90;;;;;;5054750;28;20046;-81
2020/12/10 01:21:11;;;;;;;;;;;0.50;99.90;;;;;;5055902;28;19920;-80
2020/12/10 01:23:46;;;;;;;;;;;0.60;99.90;;;;;;5055798;28;20355;-81
2020/12/10 01:26:18;;;;;;;;;;;0.60;99.90;;;;;;5066586;28;19912;-82
2020/12/10 01:28:47;;;;;;;;;;;0.60;99.90;;;;;;5098640;28;19908;-81
2020/12/10 01:31:13;;;;;;;;;;;0.70;99.90;;;;;;5095224;28;20368;-81
2020/12/10 01:33:41;;;;;;;;;;;0.60;99.90;;;;;;5098464;28;19943;-81
2020/12/10 01:36:15;;;;;;;;;;;0.70;99.90;;;;;;5117078;28;20375;-81
2020/12/10 01:38:44;;;;;;;;;;;0.70;99.90;;;;;;5117239;28;19961;-82
2020/12/10 01:41:12;;;;;;;;;;;0.70;99.90;;;;;;5116996;28;19939;-82
2020/12/10 01:43:44;;;;;;;;;;;0.70;99.90;;;;;;5115851;28;19908;-81
2020/12/10 01:46:16;;;;;;;;;;;0.70;99.90;;;;;;5098743;28;19908;-81
2020/12/10 01:48:44;;;;;;;;;;;0.70;99.90;;;;;;5098744;28;19919;-80
2020/12/10 01:51:14;;;;;;;;;;;0.70;99.90;;;;;;5113900;28;20027;-81
2020/12/10 01:53:42;;;;;;;;;;;0.70;99.90;;;;;;5113672;28;19919;-80
2020/12/10 01:56:15;;;;;;;;;;;0.60;99.90;;;;;;5098301;28;19912;-80
2020/12/10 01:58:46;;;;;;;;;;;0.50;99.90;;;;;;5116709;28;19939;-82
2020/12/10 02:01:17;;;;;;;;;;;0.50;99.90;;;;;;5116845;28;19915;-81
2020/12/10 02:03:50;;;;;;;;;;;0.40;99.90;;;;;;5098189;28;19908;-81
2020/12/10 02:06:20;;;;;;;;;;;0.30;99.90;;;;;;5116715;28;19931;-81
2020/12/10 02:08:46;;;;;;;;;;;0.20;99.90;;;;;;5098408;28;19907;-81
2020/12/10 02:11:20;;;;;;;;;;;0.20;99.90;;;;;;5116364;28;20286;-82
2020/12/10 02:14:05;;;;;;;;;;;0.10;99.90;;;;;;5114705;28;20271;-81
2020/12/10 02:16:34;;;;;;;;;;;0.10;99.90;;;;;;5098719;28;19915;-82
2020/12/10 02:19:19;;;;;;;;;;;0.00;99.90;;;;;;5114562;28;19907;-82
2020/12/10 02:21:51;;;;;;;;;;;0.00;99.90;;;;;;5112694;28;19924;-81
2020/12/10 02:24:20;;;;;;;;;;;-0.10;99.90;;;;;;5097896;28;19911;-82
2020/12/10 02:26:51;;;;;;;;;;;-0.10;99.90;;;;;;5116439;28;19914;-82
2020/12/10 02:29:22;;;;;;;;;;;-0.10;99.90;;;;;;5115949;28;19907;-83
2020/12/10 02:31:53;;;;;;;;;;;-0.20;99.90;;;;;;5098025;28;20322;-81
2020/12/10 02:34:34;;;;;;;;;;;-0.20;99.90;;;;;;5095115;28;20360;-82
2020/12/10 02:37:16;;;;;;;;;;;-0.20;99.90;;;;;;5115699;28;19908;-81
2020/12/10 02:39:44;;;;;;;;;;;-0.30;99.90;;;;;;5115870;28;19912;-82
2020/12/10 02:42:10;;;;;;;;;;;-0.30;99.90;;;;;;5093272;28;19915;-81
2020/12/10 02:44:38;;;;;;;;;;;-0.30;99.90;;;;;;5097386;28;19908;-82
2020/12/10 02:47:10;;;;;;;;;;;-0.30;99.90;;;;;;5097489;28;19916;-82
2020/12/10 02:49:46;;;;;;;;;;;-0.40;99.90;;;;;;5113131;28;19937;-82
2020/12/10 02:52:19;;;;;;;;;;;-0.30;99.90;;;;;;5097026;28;19980;-82
2020/12/10 02:54:48;;;;;;;;;;;-0.30;99.90;;;;;;5050743;28;19959;-82
2020/12/10 02:57:17;;;;;;;;;;;-0.40;99.90;;;;;;5049981;28;19913;-82
2020/12/10 02:59:42;;;;;;;;;;;-0.40;99.90;;;;;;5032587;28;19920;-82
2020/12/10 03:02:26;;;;;;;;;;;-0.50;99.90;;;;;;5052673;28;19913;-82
2020/12/10 03:04:56;;;;;;;;;;;-0.50;99.90;;;;;;5035762;28;19948;-80
2020/12/10 03:07:22;;;;;;;;;;;-0.50;99.90;;;;;;5052262;28;20377;-80
2020/12/10 03:10:18;;;;;;;;;;;-0.60;99.90;;;;;;5052229;28;19909;-80
2020/12/10 03:12:52;;;;;;;;;;;-0.60;99.90;;;;;;5036095;28;19917;-80
2020/12/10 03:15:29;;;;;;;;;;;-0.60;99.90;;;;;;5052248;28;20366;-81
2020/12/10 03:18:07;;;;;;;;;;;-0.70;99.90;;;;;;5052108;28;19909;-80
2020/12/10 03:20:53;;;;;;;;;;;-0.60;99.90;;;;;;5114895;28;19919;-80
2020/12/10 03:23:21;;;;;;;;;;;-0.70;99.90;;;;;;5096763;28;19907;-80
2020/12/10 03:25:52;;;;;;;;;;;-0.70;99.90;;;;;;5096655;28;19947;-80
2020/12/10 03:28:21;;;;;;;;;;;-0.60;99.90;;;;;;5095494;28;19914;-80
2020/12/10 03:30:52;;;;;;;;;;;-0.50;99.90;;;;;;5115089;28;19922;-80
2020/12/10 03:33:20;;;;;;;;;;;-0.50;99.90;;;;;;5096486;28;19947;-81
2020/12/10 03:35:50;;;;;;;;;;;-0.50;99.90;;;;;;5094097;28;19916;-81
2020/12/10 03:38:26;;;;;;;;;;;-0.50;99.90;;;;;;5111600;28;19918;-81
2020/12/10 03:41:13;;;;;;;;;;;-0.60;99.90;;;;;;5114588;28;19908;-82
2020/12/10 03:43:49;;;;;;;;;;;-0.60;99.90;;;;;;5111596;28;19912;-81
2020/12/10 03:46:20;;;;;;;;;;;-0.60;99.90;;;;;;5114606;28;19907;-82
2020/12/10 03:48:48;;;;;;;;;;;-0.60;99.90;;;;;;5111931;28;20391;-81
2020/12/10 03:51:22;;;;;;;;;;;-0.60;99.90;;;;;;5096357;28;20011;-82
2020/12/10 03:54:02;;;;;;;;;;;-0.60;99.90;;;;;;5110108;28;19957;-82
2020/12/10 03:56:31;;;;;;;;;;;-0.70;99.90;;;;;;5093792;28;19912;-82
2020/12/10 03:59:03;;;;;;;;;;;-0.70;99.90;;;;;;5114962;28;19965;-82
2020/12/10 04:01:37;;;;;;;;;;;-0.70;99.90;;;;;;5096109;28;19922;-81
2020/12/10 04:04:06;;;;;;;;;;;-0.70;99.90;;;;;;5095704;28;20279;-81
2020/12/10 04:06:37;;;;;;;;;;;-0.80;99.90;;;;;;5095992;28;20057;-82
2020/12/10 04:09:03;;;;;;;;;;;-0.80;99.90;;;;;;5093425;28;19915;-81
2020/12/10 04:11:32;;;;;;;;;;;-0.90;99.90;;;;;;5111199;28;20386;-81
2020/12/10 04:14:04;;;;;;;;;;;-0.80;99.90;;;;;;5095806;28;19918;-81
2020/12/10 04:16:35;;;;;;;;;;;-0.80;99.90;;;;;;5096010;28;19915;-82
2020/12/10 04:19:04;;;;;;;;;;;-0.80;99.90;;;;;;5096010;28;19908;-81
2020/12/10 04:21:32;;;;;;;;;;;-0.90;99.90;;;;;;5096246;28;20314;-81
2020/12/10 04:24:02;;;;;;;;;;;-0.80;99.90;;;;;;5096172;28;19908;-81
2020/12/10 04:26:33;;;;;;;;;;;-0.70;99.90;;;;;;5095771;28;19908;-81
2020/12/10 04:29:01;;;;;;;;;;;-0.70;99.90;;;;;;5095535;28;20352;-81
2020/12/10 04:31:35;;;;;;;;;;;-0.60;99.90;;;;;;5096379;28;19938;-81
2020/12/10 04:34:04;;;;;;;;;;;-0.50;99.90;;;;;;5095771;28;19915;-81
2020/12/10 04:36:35;;;;;;;;;;;-0.50;99.90;;;;;;5096140;28;19908;-81
2020/12/10 04:39:04;;;;;;;;;;;-0.50;99.90;;;;;;5114201;28;19907;-81
2020/12/10 04:41:41;;;;;;;;;;;-0.50;99.90;;;;;;5113546;28;20364;-81
2020/12/10 04:44:25;;;;;;;;;;;-0.60;99.90;;;;;;5112259;28;19908;-81
2020/12/10 04:46:58;;;;;;;;;;;-0.60;99.90;;;;;;5111295;28;19919;-81
2020/12/10 04:49:35;;;;;;;;;;;-0.70;99.90;;;;;;5114426;28;20379;-82
2020/12/10 04:52:08;;;;;;;;;;;-0.80;99.90;;;;;;5092645;28;19922;-82
2020/12/10 04:54:39;;;;;;;;;;;-0.80;99.90;;;;;;5096151;28;20272;-82
2020/12/10 04:57:08;;;;;;;;;;;-0.90;99.90;;;;;;5095641;28;20271;-82
2020/12/10 04:59:34;;;;;;;;;;;-1.00;99.90;;;;;;5031563;28;19948;-82
2020/12/10 05:02:05;;;;;;;;;;;-1.00;99.90;;;;;;5028923;28;19913;-81
2020/12/10 05:04:36;;;;;;;;;;;-1.00;99.90;;;;;;5015060;28;19909;-82
2020/12/10 05:07:07;;;;;;;;;;;-1.10;99.90;;;;;;5016140;28;19917;-81
2020/12/10 05:09:52;;;;;;;;;;;-1.10;99.90;;;;;;5018271;28;19955;-82
2020/12/10 05:12:27;;;;;;;;;;;-1.10;99.90;;;;;;5034852;28;19924;-81
2020/12/10 05:14:56;;;;;;;;;;;-1.10;99.90;;;;;;5018225;28;19909;-82
2020/12/10 05:17:24;;;;;;;;;;;-1.10;99.90;;;;;;5013467;28;20000;-81
2020/12/10 05:20:02;;;;;;;;;;;-1.20;99.90;;;;;;5034921;28;20282;-82
2020/12/10 05:22:48;;;;;;;;;;;-1.20;99.90;;;;;;5034550;28;20011;-81
2020/12/10 05:25:22;;;;;;;;;;;-1.20;99.90;;;;;;5034449;28;19909;-82
2020/12/10 05:28:08;;;;;;;;;;;-1.20;99.90;;;;;;5014902;28;19963;-81
2020/12/10 05:30:36;;;;;;;;;;;-1.20;99.90;;;;;;5059830;28;19908;-81
2020/12/10 05:33:09;;;;;;;;;;;-1.20;99.90;;;;;;5115365;28;20439;-82
2020/12/10 05:35:35;;;;;;;;;;;-1.20;99.90;;;;;;5117371;28;20359;-82
2020/12/10 05:38:10;;;;;;;;;;;-1.20;99.90;;;;;;5116793;28;19907;-82
2020/12/10 05:40:43;;;;;;;;;;;-1.30;99.90;;;;;;5098831;28;19915;-81
2020/12/10 05:43:21;;;;;;;;;;;-1.30;99.90;;;;;;5098704;28;20268;-81
2020/12/10 05:45:55;;;;;;;;;;;-1.40;99.90;;;;;;5099228;28;20357;-81
2020/12/10 05:48:26;;;;;;;;;;;-1.40;99.90;;;;;;5098433;28;20356;-82
2020/12/10 05:50:55;;;;;;;;;;;-1.40;99.90;;;;;;5099068;28;19972;-81
2020/12/10 05:53:29;;;;;;;;;;;-1.50;99.90;;;;;;5113909;28;19930;-82
2020/12/10 05:56:07;;;;;;;;;;;-1.50;99.90;;;;;;5098573;28;19908;-82
2020/12/10 05:58:38;;;;;;;;;;;-1.50;99.90;;;;;;5098630;28;19908;-82
2020/12/10 06:01:03;;;;;;;;;;;-1.50;99.90;;;;;;5095710;28;20379;-82
2020/12/10 06:03:32;;;;;;;;;;;-1.50;99.90;;;;;;5098325;28;20003;-82
2020/12/10 06:06:06;;;;;;;;;;;-1.50;99.90;;;;;;5093399;28;19991;-82
2020/12/10 06:08:45;;;;;;;;;;;-1.50;99.90;;;;;;5077619;28;19923;-82
2020/12/10 06:11:16;;;;;;;;;;;-1.50;99.90;;;;;;5075726;28;19924;-82
2020/12/10 06:13:56;;;;;;;;;;;-1.60;99.90;;;;;;5096105;28;20382;-82
2020/12/10 06:16:24;;;;;;;;;;;-1.50;99.90;;;;;;5075274;28;19922;-82
2020/12/10 06:19:19;;;;;;;;;;;-1.50;99.90;;;;;;5075080;28;19920;-82
2020/12/10 06:21:46;;;;;;;;;;;-1.40;99.90;;;;;;5052753;28;19920;-82
2020/12/10 06:24:29;;;;;;;;;;;-1.40;99.90;;;;;;5073534;28;19924;-82
2020/12/10 06:27:18;;;;;;;;;;;-1.50;99.90;;;;;;5075644;28;19909;-82
2020/12/10 06:29:47;;;;;;;;;;;-1.50;99.90;;;;;;5072415;28;20375;-83
2020/12/10 06:32:25;;;;;;;;;;;-1.50;99.90;;;;;;5072486;28;19921;-82
2020/12/10 06:34:59;;;;;;;;;;;-1.50;99.90;;;;;;5091055;28;20352;-83
2020/12/10 06:37:36;;;;;;;;;;;-1.40;99.90;;;;;;5075312;28;20046;-82
2020/12/10 06:40:37;;;;;;;;;;;-1.40;99.90;;;;;;5074592;28;19913;-81
2020/12/10 06:43:06;;;;;;;;;;;-1.50;99.90;;;;;;5075229;28;19912;-82
2020/12/10 06:45:47;;;;;;;;;;;-1.50;99.90;;;;;;5086329;28;19913;-82
2020/12/10 06:48:19;;;;;;;;;;;-1.50;99.90;;;;;;5087575;28;19909;-82
2020/12/10 06:50:50;;;;;;;;;;;-1.60;99.90;;;;;;5075256;28;20460;-82
2020/12/10 06:53:26;;;;;;;;;;;-1.60;99.90;;;;;;5075476;28;19947;-82
2020/12/10 06:55:55;;;;;;;;;;;-1.60;99.90;;;;;;5091240;28;20424;-82
2020/12/10 06:58:45;;;;;;;;;;;-1.50;99.90;;;;;;5075513;28;19909;-82
2020/12/10 07:01:27;;;;;;;;;;;-1.50;99.90;;;;;;5064551;28;19973;-82
2020/12/10 07:04:11;;;;;;;;;;;-1.50;99.90;;;;;;5075116;28;20349;-82
2020/12/10 07:06:38;;;;;;;;;;;-1.60;99.90;;;;;;5074843;28;19908;-82
2020/12/10 07:09:24;;;;;;;;;;;-1.60;99.90;;;;;;5074980;28;19912;-82
2020/12/10 07:11:55;;;;;;;;;;;-1.60;99.90;;;;;;5091410;28;19923;-82
2020/12/10 07:14:28;;;;;;;;;;;-1.60;99.90;;;;;;5080977;28;19913;-82
2020/12/10 07:17:00;;;;;;;;;;;-1.60;99.90;;;;;;5078793;28;20201;-83
2020/12/10 07:19:27;;;;;;;;;;;-1.60;99.90;;;;;;5094322;28;19908;-83
2020/12/10 07:21:53;;;;;;;;;;;-1.60;99.90;;;;;;5109407;28;19919;-83
2020/12/10 07:24:19;;;;;;;;;;;-1.60;99.90;;;;;;5114904;28;20002;-83
2020/12/10 07:26:45;;;;;;;;;;;-1.60;99.90;;;;;;5096765;28;19908;-83
2020/12/10 07:29:16;;;;;;;;;;;-1.60;99.90;;;;;;5096776;28;19908;-83
2020/12/10 07:31:45;;;;;;;;;;;-1.60;99.90;;;;;;5094947;28;19969;-82
2020/12/10 07:34:22;;;;;;;;;;;-1.60;99.90;;;;;;5096600;28;19912;-83
2020/12/10 07:36:51;;;;;;;;;;;-1.50;99.90;;;;;;5096622;28;19908;-83
2020/12/10 07:39:50;;;;;;;;;;;-1.40;99.90;;;;;;5096580;28;19951;-82
2020/12/10 07:42:37;;;;;;;;;;;-1.40;99.90;;;;;;5115209;28;19908;-83
2020/12/10 07:45:17;;;;;;;;;;;-1.40;99.90;;;;;;5096916;28;19961;-82
2020/12/10 07:47:55;;;;;;;;;;;-1.40;99.90;;;;;;5096080;28;19907;-83
2020/12/10 07:50:26;;;;;;;;;;;-1.30;99.90;;;;;;5096503;28;20375;-83
2020/12/10 07:52:53;;;;;;;;;;;-1.30;99.90;;;;;;5094067;28;19982;-83
2020/12/10 07:55:22;;;;;;;;;;;-1.30;99.90;;;;;;5096106;28;19915;-83
2020/12/10 07:57:54;;;;;;;;;;;-1.30;99.90;;;;;;5090202;28;19908;-83
2020/12/10 08:00:25;;;;;;;;;;;-1.20;99.90;;;;;;5114781;28;20052;-83
2020/12/10 08:03:09;;;;;;;;;;;-1.20;99.90;;;;;;5093771;28;19956;-82
2020/12/10 08:05:37;;;;;;;;;;;-1.20;99.90;;;;;;5095943;28;19955;-82
2020/12/10 08:08:14;;;;;;;;;;;-1.20;99.90;;;;;;5096057;28;19908;-83
2020/12/10 08:10:40;;;;;;;;;;;-1.10;99.90;;;;;;5096181;28;19915;-83
2020/12/10 08:13:10;;;;;;;;;;;-1.10;99.90;;;;;;5114248;28;20364;-82
2020/12/10 08:15:38;;;;;;;;;;;-1.10;99.90;;;;;;5095960;28;20287;-83
2020/12/10 08:18:04;;;;;;;;;;;-1.00;99.90;;;;;;5095686;28;19908;-83
2020/12/10 08:20:53;;;;;;;;;;;-0.90;99.90;;;;;;5095909;28;19915;-83
2020/12/10 08:23:22;;;;;;;;;;;-0.90;99.90;;;;;;5091364;28;19911;-82
2020/12/10 08:26:07;;;;;;;;;;;-0.80;99.90;;;;;;5111602;28;19911;-82
2020/12/10 08:28:33;;;;;;;;;;;-0.70;99.90;;;;;;5095512;28;19912;-82
2020/12/10 08:31:01;;;;;;;;;;;-0.70;99.90;;;;;;5096114;28;20260;-82
2020/12/10 08:33:34;;;;;;;;;;;-0.60;99.90;;;;;;5093029;28;19916;-84
2020/12/10 08:35:59;;;;;;;;;;;-0.60;99.90;;;;;;5095920;28;20367;-83
2020/12/10 08:38:27;;;;;;;;;;;-0.60;99.90;;;;;;5096363;28;20002;-83
2020/12/10 08:41:02;;;;;;;;;;;-0.50;99.90;;;;;;5099615;28;19914;-82
2020/12/10 08:43:27;;;;;;;;;;;-0.50;99.90;;;;;;5099750;28;19953;-83
2020/12/10 08:46:00;;;;;;;;;;;-0.30;99.90;;;;;;5114279;28;20280;-82
2020/12/10 08:48:29;;;;;;;;;;;-0.30;99.90;;;;;;5096244;28;19931;-83
2020/12/10 08:51:01;;;;;;;;;;;-0.20;99.90;;;;;;5099491;28;19908;-83
2020/12/10 08:53:27;;;;;;;;;;;-0.10;99.90;;;;;;5099892;28;19919;-83
2020/12/10 08:55:54;;;;;;;;;;;-0.10;99.90;;;;;;5099580;28;19911;-83
2020/12/10 08:58:20;;;;;;;;;;;0.00;99.90;;;;;;5106315;28;19973;-82
2020/12/10 09:01:15;;;;;;;;;;;0.10;99.90;;;;;;5122060;28;20275;-82
2020/12/10 09:03:45;;;;;;;;;;;0.20;99.90;;;;;;5099175;28;19912;-82
2020/12/10 09:06:18;;;;;;;;;;;0.30;99.90;;;;;;5078675;28;19938;-82
2020/12/10 09:08:51;;;;;;;;;;;0.10;99.90;;;;;;5079657;28;20359;-82
2020/12/10 09:11:22;;;;;;;;;;;0.00;99.90;;;;;;5072844;28;19912;-82
2020/12/10 09:13:59;;;;;;;;;;;0.00;99.90;;;;;;5078983;28;19916;-82
2020/12/10 09:16:30;;;;;;;;;;;0.10;99.90;;;;;;5097114;28;19940;-83
2020/12/10 09:19:02;;;;;;;;;;;0.10;99.90;;;;;;5078680;28;19912;-82
2020/12/10 09:21:36;;;;;;;;;;;0.10;99.90;;;;;;5078571;28;20293;-82
2020/12/10 09:24:05;;;;;;;;;;;0.10;99.90;;;;;;5078651;28;19908;-83
2020/12/10 09:26:34;;;;;;;;;;;0.10;99.90;;;;;;5075385;28;19958;-82
2020/12/10 09:29:01;;;;;;;;;;;0.00;99.90;;;;;;5078391;28;19958;-82
2020/12/10 09:31:27;;;;;;;;;;;0.00;99.90;;;;;;5078557;28;20440;-82
2020/12/10 09:33:55;;;;;;;;;;;-0.10;99.90;;;;;;5078766;28;19908;-83
2020/12/10 09:36:25;;;;;;;;;;;-0.10;99.90;;;;;;5078584;28;19961;-82
2020/12/10 09:38:53;;;;;;;;;;;-0.10;99.90;;;;;;5094576;28;20229;-82
2020/12/10 09:41:22;;;;;;;;;;;-0.10;99.90;;;;;;5088161;28;19908;-82
2020/12/10 09:43:55;;;;;;;;;;;0.10;99.90;;;;;;5085846;28;19908;-83
2020/12/10 09:46:30;;;;;;;;;;;0.30;99.90;;;;;;5104337;28;19938;-82
2020/12/10 09:49:14;;;;;;;;;;;0.40;99.90;;;;;;5087585;28;19916;-82
2020/12/10 09:51:52;;;;;;;;;;;0.50;99.90;;;;;;5092158;28;19920;-81
2020/12/10 09:59:47;;;;;;;;;;;0.60;99.90;;;;;;5095724;28;19919;-82
2020/12/10 10:02:22;;;;;;;;;;;0.60;99.90;;;;;;5032956;28;19917;-82
2020/12/10 10:05:10;;;;;;;;;;;0.70;99.90;;;;;;5051927;28;19956;-82
2020/12/10 10:07:44;;;;;;;;;;;0.90;99.90;;;;;;5036912;28;19909;-82
2020/12/10 10:10:10;;;;;;;;;;;1.10;99.90;;;;;;5034283;28;19992;-82
2020/12/10 10:12:42;;;;;;;;;;;1.30;99.90;;;;;;5032884;28;19921;-82
2020/12/10 10:15:11;;;;;;;;;;;1.40;99.90;;;;;;5016910;28;19916;-81
2020/12/10 10:17:43;;;;;;;;;;;1.40;99.90;;;;;;5031099;28;19952;-82
2020/12/10 10:20:25;;;;;;;;;;;1.60;99.90;;;;;;5031491;28;20301;-83
2020/12/10 10:22:54;;;;;;;;;;;1.60;99.90;;;;;;5016781;28;19913;-82
2020/12/10 10:25:20;;;;;;;;;;;1.60;99.90;;;;;;5033104;28;19909;-82
2020/12/10 10:27:53;;;;;;;;;;;1.40;99.90;;;;;;5033467;28;19916;-82
2020/12/10 10:30:29;;;;;;;;;;;1.30;99.90;;;;;;5016286;28;19995;-81
2020/12/10 10:32:57;;;;;;;;;;;1.30;99.90;;;;;;5045924;28;19959;-83
2020/12/10 10:35:25;;;;;;;;;;;1.30;99.90;;;;;;5087291;28;19948;-82
2020/12/10 10:38:18;;;;;;;;;;;1.40;99.90;;;;;;5074831;28;19908;-82
2020/12/10 10:40:47;;;;;;;;;;;1.40;99.90;;;;;;5073662;28;19915;-82
2020/12/10 10:43:15;;;;;;;;;;;1.40;99.90;;;;;;5075221;28;20007;-81
2020/12/10 10:45:41;;;;;;;;;;;1.40;99.90;;;;;;5074331;28;20258;-81
2020/12/10 10:48:11;;;;;;;;;;;1.40;99.90;;;;;;5075397;28;19915;-81
2020/12/10 10:50:37;;;;;;;;;;;1.40;99.90;;;;;;5073530;28;19909;-82
2020/12/10 10:53:02;;;;;;;;;;;1.40;99.90;;;;;;5073432;28;19967;-81
2020/12/10 10:55:30;;;;;;;;;;;1.40;99.90;;;;;;5074533;28;19985;-81
2020/12/10 10:57:56;;;;;;;;;;;1.40;99.90;;;;;;5055219;28;19914;-82
2020/12/10 11:00:24;;;;;;;;;;;1.40;99.90;;;;;;5055338;28;19935;-81
2020/12/10 11:02:59;;;;;;;;;;;1.40;99.90;;;;;;5071298;28;19908;-82
2020/12/10 11:05:35;;;;;;;;;;;1.50;99.90;;;;;;5055424;28;19946;-82
2020/12/10 11:08:03;;;;;;;;;;;1.80;99.90;;;;;;5072166;28;19912;-82
2020/12/10 11:10:38;;;;;;;;;;;2.10;99.90;;;;;;5071880;28;19909;-82
2020/12/10 11:13:04;;;;;;;;;;;2.20;99.90;;;;;;5055464;28;19916;-82
2020/12/10 11:15:43;;;;;;;;;;;2.20;99.90;;;;;;5055609;28;19987;-83
2020/12/10 11:18:11;;;;;;;;;;;2.20;99.90;;;;;;5055534;28;19909;-82
2020/12/10 11:20:37;;;;;;;;;;;2.10;99.90;;;;;;5056698;28;19936;-82
2020/12/10 11:23:05;;;;;;;;;;;2.20;99.90;;;;;;5071408;28;19919;-82
2020/12/10 11:25:35;;;;;;;;;;;2.30;99.90;;;;;;5072335;28;19908;-83
2020/12/10 11:28:23;;;;;;;;;;;2.40;99.90;;;;;;5072273;28;19958;-83
2020/12/10 11:30:56;;;;;;;;;;;2.50;99.90;;;;;;5072517;28;20395;-82
2020/12/10 11:33:29;;;;;;;;;;;2.60;99.90;;;;;;5072754;28;19916;-83
2020/12/10 11:36:01;;;;;;;;;;;2.60;99.90;;;;;;5073059;28;19948;-82
2020/12/10 11:38:41;;;;;;;;;;;2.60;99.90;;;;;;5074650;28;19915;-82
2020/12/10 11:41:13;;;;;;;;;;;2.60;99.90;;;;;;5072857;28;20315;-82
2020/12/10 11:43:44;;;;;;;;;;;2.60;99.90;;;;;;5072914;28;19960;-82
2020/12/10 11:46:13;;;;;;;;;;;2.60;99.90;;;;;;5073045;28;20448;-81
2020/12/10 11:48:42;;;;;;;;;;;2.60;99.90;;;;;;5073122;28;19912;-81
2020/12/10 11:51:07;;;;;;;;;;;2.50;99.90;;;;;;5072514;28;19959;-81
2020/12/10 11:53:38;;;;;;;;;;;2.50;99.90;;;;;;5072982;28;19964;-81
2020/12/10 11:56:10;;;;;;;;;;;2.40;99.90;;;;;;5072509;28;19908;-81
2020/12/10 11:58:38;;;;;;;;;;;2.40;99.90;;;;;;5073299;28;20261;-81
2020/12/10 12:01:06;;;;;;;;;;;2.30;99.90;;;;;;5073895;28;20313;-83
2020/12/10 12:03:45;;;;;;;;;;;2.30;99.90;;;;;;5072648;28;19913;-83
2020/12/10 12:06:18;;;;;;;;;;;2.30;99.90;;;;;;5072815;28;19958;-81
2020/12/10 12:08:43;;;;;;;;;;;2.30;99.90;;;;;;5073648;28;20349;-80
2020/12/10 12:11:12;;;;;;;;;;;2.40;99.90;;;;;;5073042;28;20011;-80
2020/12/10 12:13:37;;;;;;;;;;;2.40;99.90;;;;;;5074822;28;19909;-81
2020/12/10 12:16:05;;;;;;;;;;;2.40;99.90;;;;;;5078740;28;20281;-81
2020/12/10 12:18:38;;;;;;;;;;;2.40;99.90;;;;;;5079357;28;19915;-81
2020/12/10 12:21:04;;;;;;;;;;;2.40;99.90;;;;;;5078673;28;20345;-82
2020/12/10 12:23:32;;;;;;;;;;;2.40;99.90;;;;;;5078604;28;19971;-82
2020/12/10 12:26:00;;;;;;;;;;;2.40;99.90;;;;;;5080543;28;19988;-81
2020/12/10 12:28:26;;;;;;;;;;;2.50;99.90;;;;;;5081957;28;19959;-82
2020/12/10 12:30:52;;;;;;;;;;;2.40;99.90;;;;;;5090129;28;20348;-82
2020/12/10 12:33:18;;;;;;;;;;;2.40;99.90;;;;;;5089761;28;20305;-82
2020/12/10 12:35:46;;;;;;;;;;;2.40;99.90;;;;;;5083574;28;19954;-82
2020/12/10 12:38:11;;;;;;;;;;;2.50;99.90;;;;;;5078492;28;19908;-81
2020/12/10 12:40:37;;;;;;;;;;;2.40;99.90;;;;;;5078766;28;19914;-81
2020/12/10 12:43:05;;;;;;;;;;;2.50;99.90;;;;;;5080296;28;20357;-82
2020/12/10 12:45:31;;;;;;;;;;;2.40;99.90;;;;;;5098822;28;19908;-82
2020/12/10 12:47:59;;;;;;;;;;;2.40;99.90;;;;;;5100025;28;19970;-81
2020/12/10 12:50:25;;;;;;;;;;;2.40;99.90;;;;;;5099122;28;19915;-81
2020/12/10 12:52:58;;;;;;;;;;;2.40;99.90;;;;;;5088084;28;19916;-82
2020/12/10 12:55:23;;;;;;;;;;;2.30;99.90;;;;;;5092070;28;19919;-82
2020/12/10 12:57:49;;;;;;;;;;;2.30;99.90;;;;;;5098955;28;19908;-82
2020/12/10 13:00:14;;;;;;;;;;;2.30;99.90;;;;;;5098603;28;19908;-82
2020/12/10 13:02:41;;;;;;;;;;;2.20;99.90;;;;;;5105727;28;19908;-81
2020/12/10 13:05:06;;;;;;;;;;;2.20;99.90;;;;;;5105955;28;19912;-82
2020/12/10 13:07:32;;;;;;;;;;;2.20;99.90;;;;;;5099014;28;19999;-82
2020/12/10 13:10:00;;;;;;;;;;;2.10;99.90;;;;;;5098657;28;19912;-82
2020/12/10 13:12:25;;;;;;;;;;;2.10;99.90;;;;;;5090634;28;20013;-81
2020/12/10 13:14:51;;;;;;;;;;;2.10;99.90;;;;;;5078547;28;20366;-81
2020/12/10 13:17:22;;;;;;;;;;;2.10;99.90;;;;;;5078911;28;20014;-81
2020/12/10 13:19:54;;;;;;;;;;;2.00;99.90;;;;;;5079529;28;19908;-81
2020/12/10 13:22:20;;;;;;;;;;;2.10;99.90;;;;;;5082999;28;19926;-81
2020/12/10 13:24:45;;;;;;;;;;;2.10;99.90;;;;;;5090550;28;19912;-81
2020/12/10 13:27:11;;;;;;;;;;;2.00;99.90;;;;;;5095204;28;19966;-81
2020/12/10 13:29:37;;;;;;;;;;;2.00;99.90;;;;;;5094830;28;19908;-82
2020/12/10 13:32:03;;;;;;;;;;;2.00;99.90;;;;;;5088309;28;19916;-82
2020/12/10 13:34:29;;;;;;;;;;;2.00;99.90;;;;;;5098498;28;19948;-82
2020/12/10 13:36:57;;;;;;;;;;;2.00;99.90;;;;;;5095698;28;20276;-82
2020/12/10 13:39:23;;;;;;;;;;;2.00;99.90;;;;;;5092979;28;20011;-82
2020/12/10 13:41:49;;;;;;;;;;;2.00;99.90;;;;;;5094858;28;19947;-82
2020/12/10 13:44:14;;;;;;;;;;;2.00;99.90;;;;;;5095311;28;19908;-83
2020/12/10 13:46:40;;;;;;;;;;;2.00;99.90;;;;;;5096115;28;19908;-82
2020/12/10 13:49:06;;;;;;;;;;;2.00;99.90;;;;;;5094656;28;19909;-82
2020/12/10 13:51:32;;;;;;;;;;;2.00;99.90;;;;;;5094735;28;19977;-82
2020/12/10 13:53:57;;;;;;;;;;;2.00;99.90;;;;;;5094945;28;19912;-82
2020/12/10 13:56:23;;;;;;;;;;;2.00;99.90;;;;;;5095041;28;19996;-81
2020/12/10 13:58:51;;;;;;;;;;;2.00;99.90;;;;;;5088536;28;20365;-82
2020/12/10 14:01:16;;;;;;;;;;;2.00;99.90;;;;;;5094642;28;19915;-82
2020/12/10 14:03:43;;;;;;;;;;;2.00;99.90;;;;;;5094644;28;19912;-82
2020/12/10 14:06:08;;;;;;;;;;;1.90;99.90;;;;;;5097062;28;20422;-81
2020/12/10 14:08:34;;;;;;;;;;;2.00;99.90;;;;;;5095571;28;19908;-81
2020/12/10 14:11:08;;;;;;;;;;;1.90;99.90;;;;;;5095277;28;20345;-81
2020/12/10 14:13:41;;;;;;;;;;;2.00;99.90;;;;;;5094837;28;19912;-80
2020/12/10 14:16:08;;;;;;;;;;;2.00;99.90;;;;;;5095125;28;20016;-81
2020/12/10 14:18:37;;;;;;;;;;;2.00;99.90;;;;;;5094640;28;20002;-82
2020/12/10 14:21:10;;;;;;;;;;;2.10;99.90;;;;;;5100188;28;19927;-82
2020/12/10 14:23:37;;;;;;;;;;;2.10;99.90;;;;;;5116063;28;19952;-82
2020/12/10 14:26:05;;;;;;;;;;;2.10;99.90;;;;;;5097728;28;19916;-82
2020/12/10 14:28:48;;;;;;;;;;;2.20;99.90;;;;;;5114025;28;19918;-82
2020/12/10 14:31:14;;;;;;;;;;;2.20;99.90;;;;;;5097574;28;19911;-82
2020/12/10 14:33:39;;;;;;;;;;;2.20;99.90;;;;;;5097246;28;19912;-82
2020/12/10 14:36:06;;;;;;;;;;;2.20;99.90;;;;;;5115325;28;19915;-82
2020/12/10 14:38:34;;;;;;;;;;;2.20;99.90;;;;;;5115726;28;19930;-82
2020/12/10 14:41:02;;;;;;;;;;;2.20;99.90;;;;;;5093857;28;20019;-81
2020/12/10 14:43:28;;;;;;;;;;;2.20;99.90;;;;;;5096784;28;19915;-81
2020/12/10 14:45:53;;;;;;;;;;;2.20;99.90;;;;;;5115268;28;19908;-82
2020/12/10 14:48:19;;;;;;;;;;;2.20;99.90;;;;;;5097169;28;19908;-82
2020/12/10 14:50:48;;;;;;;;;;;2.20;99.90;;;;;;5097090;28;19908;-80
2020/12/10 14:53:13;;;;;;;;;;;2.20;99.90;;;;;;5102202;28;19939;-82